Time;durP1;ratioP1;P1;durP2;ratioP2;P2;SDS_P1;SDS_P2;PMS_P1;PMS_P2;Temp;Humidity;BMP_temperature;BMP_pressure;BME280_temperature;BME280_humidity;BME280_pressure;Samples;Min_cycle;Max_cycle;Signal;HPM_P1;HPM_P2
2022/09/04 00:00:32;;;;;;;7.60;3.10;;;;;;;19.08;51.75;101395.81;5207953;28;20135;-40
2022/09/04 00:03:30;;;;;;;12.70;4.80;;;;;;;19.03;51.85;101390.19;5202298;28;20492;-40
2022/09/04 00:06:09;;;;;;;9.10;4.00;;;;;;;19.04;52.00;101394.53;5199780;28;20087;-43
2022/09/04 00:09:13;;;;;;;4.78;3.08;;;;;;;18.99;51.92;101391.63;5202000;28;20505;-40
2022/09/04 00:11:53;;;;;;;7.82;3.53;;;;;;;18.99;51.96;101402.31;5196868;28;20190;-45
2022/09/04 00:14:43;;;;;;;5.78;3.28;;;;;;;19.03;51.94;101395.56;5200444;28;20542;-39
2022/09/04 00:17:21;;;;;;;9.43;3.63;;;;;;;19.03;51.92;101406.25;5201793;28;20044;-42
2022/09/04 00:20:01;;;;;;;8.63;3.47;;;;;;;19.02;51.76;101409.97;5206354;28;20117;-42
2022/09/04 00:22:40;;;;;;;9.25;4.25;;;;;;;19.00;51.97;101409.31;5197072;28;20500;-42
2022/09/04 00:25:21;;;;;;;9.20;3.63;;;;;;;18.96;51.84;101400.03;5202264;28;20060;-45
2022/09/04 00:28:04;;;;;;;11.48;4.35;;;;;;;18.95;51.97;101390.31;5201789;28;20036;-44
2022/09/04 00:30:44;;;;;;;14.98;4.63;;;;;;;19.00;52.07;101407.47;5201188;28;20174;-42
2022/09/04 00:37:15;;;;;;;5.43;4.25;;;;;;;18.96;51.85;101408.06;5198744;28;20127;-46
2022/09/04 00:39:54;;;;;;;8.52;5.35;;;;;;;18.95;52.10;101417.09;5200460;28;20660;-43
2022/09/04 00:42:46;;;;;;;6.65;4.18;;;;;;;18.88;51.91;101409.81;5197038;28;20052;-42
2022/09/04 00:46:19;;;;;;;9.75;4.10;;;;;;;18.91;51.91;101422.00;5197140;28;20130;-41
2022/09/04 00:49:50;;;;;;;5.72;4.38;;;;;;;18.86;52.10;101427.94;5197574;28;20430;-43
2022/09/04 00:52:45;;;;;;;7.78;3.95;;;;;;;18.80;52.18;101423.34;5158094;28;20538;-46
2022/09/04 00:55:37;;;;;;;9.32;4.25;;;;;;;18.79;51.96;101435.03;5198611;28;20125;-45
2022/09/04 00:58:34;;;;;;;6.90;4.57;;;;;;;18.78;52.06;101436.06;5199324;28;20115;-41
2022/09/04 01:01:06;;;;;;;5.93;4.43;;;;;;;18.75;52.01;101438.31;5195772;28;20408;-44
2022/09/04 01:04:07;;;;;;;8.07;4.55;;;;;;;18.76;52.19;101438.09;5190507;28;20072;-43
2022/09/04 01:06:49;;;;;;;7.63;4.38;;;;;;;18.71;51.96;101443.19;5176613;28;20384;-42
2022/09/04 01:09:42;;;;;;;11.63;5.00;;;;;;;18.72;52.17;101454.69;5179993;28;20957;-41
2022/09/04 01:12:32;;;;;;;10.70;4.65;;;;;;;18.70;52.13;101444.16;5176881;28;20457;-41
2022/09/04 01:15:15;;;;;;;6.05;4.88;;;;;;;18.65;52.11;101446.59;5179901;28;20090;-41
2022/09/04 01:17:58;;;;;;;;;;;;;;;18.67;52.34;101457.94;5178863;28;20589;-42
2022/09/04 01:20:56;;;;;;;18.13;5.68;;;;;;;18.67;52.19;101456.09;5177039;28;19959;-44
2022/09/04 01:24:22;;;;;;;7.35;5.00;;;;;;;18.64;52.25;101453.81;5179798;28;20064;-41
2022/09/04 01:27:03;;;;;;;6.72;4.40;;;;;;;18.62;51.98;101455.00;5183781;28;20501;-41
2022/09/04 01:29:46;;;;;;;10.20;5.43;;;;;;;18.59;52.50;101455.38;5175399;28;20427;-40
2022/09/04 01:32:35;;;;;;;7.70;5.82;;;;;;;18.48;52.25;101445.16;5181598;28;20376;-40
2022/09/04 01:35:21;;;;;;;8.73;4.90;;;;;;;18.47;52.40;101451.53;5176720;28;20504;-41
2022/09/04 01:38:06;;;;;;;11.65;6.43;;;;;;;18.48;52.03;101455.84;5172183;28;20405;-43
2022/09/04 01:40:44;;;;;;;6.90;6.13;;;;;;;18.46;52.36;101455.19;5179031;28;20525;-43
2022/09/04 01:43:20;;;;;;;8.23;5.80;;;;;;;18.51;52.24;101464.31;5178392;28;20483;-38
2022/09/04 01:46:35;;;;;;;8.57;5.80;;;;;;;18.50;52.24;101468.03;5175075;28;20360;-41
2022/09/04 01:49:15;;;;;;;11.13;5.47;;;;;;;18.39;52.59;101465.81;5171918;28;20068;-46
2022/09/04 01:52:00;;;;;;;7.30;6.13;;;;;;;18.41;52.64;101467.28;5177093;28;20077;-41
2022/09/04 01:54:48;;;;;;;14.85;6.32;;;;;;;18.42;52.49;101468.94;5175166;28;20369;-41
2022/09/04 01:57:36;;;;;;;14.38;6.30;;;;;;;18.34;52.44;101465.56;5178590;28;20060;-43
2022/09/04 02:00:13;;;;;;;12.32;8.18;;;;;;;18.29;52.54;101458.06;5179063;28;20488;-38
2022/09/04 02:03:01;;;;;;;6.72;5.78;;;;;;;18.36;52.61;101477.69;5181142;28;20049;-41
2022/09/04 02:05:53;;;;;;;16.77;6.88;;;;;;;18.35;52.54;101476.06;5195882;28;20350;-43
2022/09/04 02:08:51;;;;;;;7.43;6.10;;;;;;;18.36;52.66;101482.22;5198186;28;20040;-40
2022/09/04 02:11:27;;;;;;;15.45;7.75;;;;;;;18.31;52.59;101468.59;5199001;28;20110;-39
2022/09/04 02:14:21;;;;;;;14.43;8.05;;;;;;;18.32;52.63;101470.25;5199980;28;20051;-40
2022/09/04 02:17:11;;;;;;;14.80;8.43;;;;;;;18.33;52.63;101467.38;5204827;28;20123;-45
2022/09/04 02:20:03;;;;;;;12.02;8.90;;;;;;;18.30;52.67;101470.44;5205878;28;20111;-42
2022/09/04 02:22:43;;;;;;;13.73;9.23;;;;;;;18.24;52.65;101463.16;5198700;28;20135;-47
2022/09/04 02:25:27;;;;;;;14.70;9.52;;;;;;;18.33;52.70;101471.91;5199791;28;20052;-45
2022/09/04 02:28:19;;;;;;;11.35;8.48;;;;;;;18.24;52.72;101465.84;5203223;28;20044;-42
2022/09/04 02:31:01;;;;;;;10.98;8.50;;;;;;;18.26;52.78;101468.31;5203276;28;20048;-41
2022/09/04 02:33:40;;;;;;;13.13;8.10;;;;;;;18.34;52.90;101469.06;5197053;28;20312;-42
2022/09/04 02:36:19;;;;;;;13.05;8.45;;;;;;;18.36;52.99;101485.72;5204221;28;20077;-42
2022/09/04 02:39:01;;;;;;;15.05;8.63;;;;;;;18.37;52.98;101482.06;5204414;28;20123;-39
2022/09/04 02:41:41;;;;;;;12.82;8.65;;;;;;;18.31;52.80;101485.47;5199728;28;20389;-42
2022/09/04 02:44:33;;;;;;;15.95;9.88;;;;;;;18.36;53.04;101488.41;5205006;28;20390;-40
2022/09/04 02:47:19;;;;;;;14.30;9.25;;;;;;;18.37;53.17;101495.44;5198348;28;20443;-41
2022/09/04 02:50:09;;;;;;;11.20;8.77;;;;;;;18.33;53.21;101483.41;5196847;28;20589;-44
2022/09/04 02:53:08;;;;;;;10.77;7.93;;;;;;;18.30;53.26;101483.81;5197660;28;20090;-39
2022/09/04 02:56:16;;;;;;;13.70;9.48;;;;;;;18.29;53.23;101492.84;5206488;28;20055;-40
2022/09/04 02:59:07;;;;;;;15.20;8.85;;;;;;;18.24;52.98;101494.41;5210025;28;20054;-40
2022/09/04 03:01:50;;;;;;;19.30;8.68;;;;;;;18.27;53.21;101494.03;5208696;28;20390;-44
2022/09/04 03:04:30;;;;;;;11.60;9.25;;;;;;;18.26;53.19;101500.41;5207197;28;20147;-40
2022/09/04 03:07:13;;;;;;;13.10;10.40;;;;;;;18.21;53.08;101498.28;5207941;28;20040;-43
2022/09/04 03:09:50;;;;;;;17.00;9.13;;;;;;;18.17;53.12;101494.31;5204053;28;20115;-48
2022/09/04 03:12:33;;;;;;;14.20;8.88;;;;;;;18.26;53.13;101500.41;5210487;28;20467;-41
2022/09/04 03:15:17;;;;;;;17.92;10.00;;;;;;;18.23;53.41;101498.91;5191245;28;20293;-42
2022/09/04 03:17:58;;;;;;;13.15;9.82;;;;;;;18.19;53.24;101509.16;5204622;28;20128;-40
2022/09/04 03:20:36;;;;;;;15.20;10.43;;;;;;;18.19;53.24;101502.97;5196414;28;20542;-41
2022/09/04 03:23:19;;;;;;;16.45;9.85;;;;;;;18.19;53.37;101508.34;5209288;28;20053;-41
2022/09/04 03:26:07;;;;;;;13.45;9.90;;;;;;;18.12;53.32;101510.91;5206864;28;20436;-42
2022/09/04 03:28:59;;;;;;;11.48;9.65;;;;;;;18.14;53.39;101524.09;5202568;28;20041;-42
2022/09/04 03:31:44;;;;;;;13.50;9.57;;;;;;;18.13;53.66;101519.75;5188983;28;20047;-42
2022/09/04 03:34:28;;;;;;;20.80;10.45;;;;;;;18.11;53.49;101519.94;5203722;28;20494;-47
2022/09/04 03:37:20;;;;;;;20.95;11.00;;;;;;;18.08;53.55;101519.47;5206414;28;20460;-42
2022/09/04 03:40:16;;;;;;;13.98;9.93;;;;;;;18.08;53.58;101522.13;5193709;28;20044;-46
2022/09/04 03:43:16;;;;;;;16.67;11.50;;;;;;;18.06;54.00;101529.53;5208235;28;20079;-42
2022/09/04 03:46:01;;;;;;;13.48;10.38;;;;;;;18.05;53.85;101533.19;5205858;28;20127;-45
2022/09/04 03:48:48;;;;;;;16.20;12.50;;;;;;;18.03;53.90;101535.25;5201782;28;20110;-41
2022/09/04 03:51:28;;;;;;;15.13;11.18;;;;;;;18.00;53.95;101535.59;5208595;28;20093;-40
2022/09/04 03:54:11;;;;;;;18.02;10.65;;;;;;;17.93;53.85;101541.66;5203080;28;20602;-44
2022/09/04 03:57:08;;;;;;;13.07;11.50;;;;;;;17.94;54.08;101553.19;5203259;28;20041;-43
2022/09/04 04:00:01;;;;;;;15.88;11.52;;;;;;;17.86;54.14;101543.38;5203580;28;20435;-42
2022/09/04 04:02:58;;;;;;;16.02;11.85;;;;;;;17.84;54.18;101544.56;5202952;28;20554;-42
2022/09/04 04:05:44;;;;;;;18.83;13.00;;;;;;;17.85;54.18;101555.09;5188903;28;20459;-45
2022/09/04 04:08:44;;;;;;;14.65;11.65;;;;;;;17.84;54.41;101557.94;5199580;28;20382;-39
2022/09/04 04:11:44;;;;;;;15.88;11.85;;;;;;;17.82;54.35;101558.13;5188138;28;20047;-45
2022/09/04 04:14:44;;;;;;;17.20;13.07;;;;;;;17.72;54.42;101544.16;5190140;28;20129;-44
2022/09/04 04:17:51;;;;;;;17.77;12.75;;;;;;;17.69;54.47;101544.53;5204200;28;20408;-44
2022/09/04 04:20:37;;;;;;;18.13;12.18;;;;;;;17.73;54.52;101553.81;5184970;28;20163;-45
2022/09/04 04:23:47;;;;;;;21.00;13.35;;;;;;;17.77;54.37;101557.81;5201567;28;20054;-40
2022/09/04 04:26:29;;;;;;;17.65;14.73;;;;;;;17.73;54.55;101561.84;5165965;28;20149;-42
2022/09/04 04:29:24;;;;;;;18.85;13.82;;;;;;;17.73;54.60;101556.50;5175021;28;20049;-40
2022/09/04 04:32:25;;;;;;;22.08;15.63;;;;;;;17.61;54.79;101541.91;5176483;28;20363;-45
2022/09/04 04:35:15;;;;;;;19.08;13.40;;;;;;;17.65;54.73;101556.56;5187548;28;20063;-39
2022/09/04 04:38:11;;;;;;;21.20;17.05;;;;;;;17.68;54.75;101565.06;5195862;28;20053;-41
2022/09/04 04:41:15;;;;;;;24.45;14.98;;;;;;;17.65;54.87;101568.09;5186840;28;20053;-44
2022/09/04 04:44:10;;;;;;;17.15;13.00;;;;;;;17.68;54.96;101570.41;5187429;28;20486;-44
2022/09/04 04:46:59;;;;;;;17.95;15.20;;;;;;;17.61;54.86;101563.28;5179418;28;20191;-43
2022/09/04 04:49:57;;;;;;;23.10;16.83;;;;;;;17.65;54.88;101569.91;5185962;28;20428;-41
2022/09/04 04:52:44;;;;;;;22.77;16.02;;;;;;;17.65;54.92;101564.56;5190049;28;20122;-44
2022/09/04 04:55:28;;;;;;;24.50;15.82;;;;;;;17.64;54.88;101571.75;5194436;28;20078;-41
2022/09/04 04:58:36;;;;;;;21.65;16.52;;;;;;;17.64;54.86;101576.28;5194578;28;20682;-41
2022/09/04 05:01:25;;;;;;;22.70;16.75;;;;;;;17.64;55.01;101573.59;5194330;28;20044;-42
2022/09/04 05:04:13;;;;;;;21.50;17.55;;;;;;;17.67;54.95;101584.75;5187116;28;20068;-42
2022/09/04 05:06:54;;;;;;;24.27;16.42;;;;;;;17.65;54.88;101580.59;5201953;28;20137;-45
2022/09/04 05:09:37;;;;;;;21.95;17.00;;;;;;;17.68;54.74;101596.25;5199204;28;20129;-43
2022/09/04 05:12:22;;;;;;;17.02;15.23;;;;;;;17.75;54.82;101605.25;5198803;28;20378;-45
2022/09/04 05:15:00;;;;;;;20.13;15.90;;;;;;;17.71;54.71;101598.59;5199106;28;20045;-38
2022/09/04 05:17:40;;;;;;;24.92;19.20;;;;;;;17.80;54.59;101605.56;5197749;28;20405;-43
2022/09/04 05:20:31;;;;;;;30.92;20.00;;;;;;;17.81;54.85;101607.25;5205313;28;20503;-41
2022/09/04 05:23:18;;;;;;;22.63;17.27;;;;;;;17.88;54.59;101618.88;5191919;28;20413;-46
2022/09/04 05:25:58;;;;;;;25.90;16.95;;;;;;;17.87;54.87;101622.56;5198730;28;20634;-40
2022/09/04 05:28:44;;;;;;;24.13;17.80;;;;;;;17.95;54.65;101627.81;5193020;28;20120;-41
2022/09/04 05:31:41;;;;;;;30.65;19.83;;;;;;;18.00;54.59;101637.16;5193477;28;20052;-43
2022/09/04 05:34:22;;;;;;;32.00;22.08;;;;;;;17.97;54.70;101628.50;5195829;28;20117;-44
2022/09/04 05:37:10;;;;;;;28.20;21.27;;;;;;;18.07;54.49;101640.78;5191465;28;20064;-46
2022/09/04 05:39:57;;;;;;;32.47;21.27;;;;;;;18.19;54.56;101642.00;5190002;28;20501;-44
2022/09/04 05:43:06;;;;;;;30.80;22.65;;;;;;;18.33;54.16;101651.91;5191621;28;20374;-43
2022/09/04 05:45:56;;;;;;;31.45;21.05;;;;;;;18.38;54.33;101641.50;5192248;28;20139;-41
2022/09/04 05:48:36;;;;;;;30.90;22.13;;;;;;;18.57;54.32;101639.31;5186334;28;20116;-40
2022/09/04 05:52:06;;;;;;;28.13;22.60;;;;;;;18.62;54.02;101629.72;5192843;28;20048;-43
2022/09/04 05:55:14;;;;;;;31.52;20.70;;;;;;;18.94;54.09;101646.47;5194559;28;20064;-44
2022/09/04 05:58:16;;;;;;;29.02;20.63;;;;;;;19.03;53.97;101633.81;5176525;28;20374;-44
2022/09/04 06:01:41;;;;;;;28.27;20.23;;;;;;;19.31;53.79;101652.69;5201155;28;20368;-44
2022/09/04 06:04:53;;;;;;;26.48;19.45;;;;;;;19.51;53.62;101659.13;5205213;28;20091;-44
2022/09/04 06:07:42;;;;;;;32.33;21.55;;;;;;;19.76;53.42;101661.50;5202969;28;20492;-42
2022/09/04 06:10:27;;;;;;;29.05;18.73;;;;;;;19.96;53.51;101667.03;5201452;28;20500;-44
2022/09/04 06:13:36;;;;;;;24.63;19.02;;;;;;;20.24;53.23;101662.56;5200914;28;20122;-43
2022/09/04 06:16:28;;;;;;;23.83;17.77;;;;;;;21.21;52.55;101665.47;5203123;28;20452;-52
2022/09/04 06:19:23;;;;;;;21.35;16.52;;;;;;;22.36;51.41;101661.84;5197125;28;20117;-44
2022/09/04 06:22:41;;;;;;;24.63;18.02;;;;;;;23.37;50.38;101653.31;5204992;28;20040;-42
2022/09/04 06:25:33;;;;;;;23.23;17.00;;;;;;;24.17;49.26;101655.53;5204457;28;20127;-41
2022/09/04 06:28:32;;;;;;;22.42;16.40;;;;;;;24.93;48.71;101661.66;5200879;28;20077;-41
2022/09/04 06:31:34;;;;;;;22.42;15.35;;;;;;;25.87;47.94;101656.75;5210753;28;20051;-42
2022/09/04 06:34:11;;;;;;;19.92;14.23;;;;;;;26.93;47.00;101663.03;5205701;28;20435;-45
2022/09/04 06:37:02;;;;;;;18.23;13.85;;;;;;;27.95;45.86;101664.19;5220535;28;20056;-46
2022/09/04 06:40:01;;;;;;;21.70;13.68;;;;;;;28.88;44.81;101670.78;5217602;28;20036;-44
2022/09/04 06:42:52;;;;;;;18.17;13.27;;;;;;;29.97;43.57;101668.19;5209639;28;20378;-40
2022/09/04 06:45:39;;;;;;;17.33;13.48;;;;;;;30.89;42.18;101669.66;5205829;28;20323;-45
2022/09/04 06:48:24;;;;;;;17.63;13.98;;;;;;;31.31;41.65;101673.31;5210308;28;20040;-45
2022/09/04 06:51:09;;;;;;;21.50;13.48;;;;;;;31.55;41.22;101682.69;5216364;28;20666;-44
2022/09/04 06:53:51;;;;;;;18.30;12.80;;;;;;;31.76;40.65;101680.00;5218799;28;20504;-42
2022/09/04 06:56:41;;;;;;;22.25;14.13;;;;;;;31.97;40.05;101673.50;5219264;28;20237;-45
2022/09/04 06:59:39;;;;;;;23.58;14.95;;;;;;;32.76;39.10;101690.31;5214568;28;20084;-47
2022/09/04 07:02:30;;;;;;;18.55;12.90;;;;;;;33.58;37.75;101690.00;5196209;28;20045;-44
2022/09/04 07:05:17;;;;;;;15.82;12.77;;;;;;;34.31;36.68;101683.66;5207225;28;20434;-43
2022/09/04 07:08:01;;;;;;;18.48;13.95;;;;;;;35.13;35.86;101691.00;5208560;28;20045;-45
2022/09/04 07:10:38;;;;;;;15.38;12.57;;;;;;;35.65;35.18;101684.50;5205611;28;20431;-44
2022/09/04 07:14:15;;;;;;;16.00;13.38;;;;;;;36.14;34.18;101683.13;5208911;28;20113;-40
2022/09/04 07:17:03;;;;;;;20.42;12.45;;;;;;;36.34;33.33;101686.66;5120331;28;20465;-44
2022/09/04 07:20:16;;;;;;;17.30;12.88;;;;;;;36.77;32.74;101694.66;5118973;28;20523;-42
2022/09/04 07:23:21;;;;;;;;;;;;;;;37.26;31.68;101702.16;5099714;28;20679;-44
2022/09/04 07:26:06;;;;;;;20.00;14.20;;;;;;;37.45;31.52;101699.25;5099806;28;20398;-44
2022/09/04 07:29:05;;;;;;;19.55;14.43;;;;;;;37.83;30.81;101696.16;5194396;28;20063;-46
2022/09/04 07:31:44;;;;;;;18.60;14.40;;;;;;;37.98;30.68;101703.25;5202218;28;20414;-43
2022/09/04 07:34:25;;;;;;;27.63;13.35;;;;;;;38.41;29.99;101706.28;5203717;28;20469;-45
2022/09/04 07:37:05;;;;;;;23.05;15.30;;;;;;;38.62;29.70;101698.25;5201212;28;20118;-41
2022/09/04 07:39:45;;;;;;;18.80;15.02;;;;;;;38.60;29.64;101702.47;5219162;28;20044;-45
2022/09/04 07:42:28;;;;;;;17.40;14.63;;;;;;;38.37;29.36;101696.97;5220874;28;20153;-44
2022/09/04 07:45:06;;;;;;;21.35;14.02;;;;;;;38.41;28.87;101711.00;5201087;28;20446;-44
2022/09/04 07:47:45;;;;;;;35.53;15.65;;;;;;;38.25;29.04;101705.84;5207500;28;20044;-46
2022/09/04 07:50:23;;;;;;;20.33;14.63;;;;;;;38.14;28.91;101709.19;5208363;28;27847;-42
2022/09/04 07:53:19;;;;;;;17.88;14.88;;;;;;;38.12;28.79;101714.22;5199305;28;20183;-47
2022/09/04 07:55:56;;;;;;;24.75;15.82;;;;;;;38.12;28.51;101720.53;5190232;28;20437;-46
2022/09/04 07:59:04;;;;;;;20.02;15.27;;;;;;;37.61;28.41;101724.53;5205406;28;20555;-45
2022/09/04 08:01:58;;;;;;;27.48;14.95;;;;;;;37.13;28.90;101725.03;5206741;28;20130;-44
2022/09/04 08:05:03;;;;;;;19.20;15.10;;;;;;;37.37;28.55;101733.84;5203865;28;20064;-45
2022/09/04 08:08:26;;;;;;;18.92;14.82;;;;;;;37.97;28.28;101737.47;5207155;28;20110;-47
2022/09/04 08:11:47;;;;;;;19.55;14.55;;;;;;;37.92;27.99;101738.44;5189867;28;20117;-44
2022/09/04 08:14:51;;;;;;;26.85;16.25;;;;;;;37.85;28.18;101743.53;5166973;28;20041;-47
2022/09/04 08:17:41;;;;;;;19.05;16.17;;;;;;;38.26;27.79;101742.53;5192726;28;20044;-46
2022/09/04 08:20:35;;;;;;;20.58;15.18;;;;;;;38.36;27.85;101745.00;5203611;28;20491;-45
2022/09/04 08:23:47;;;;;;;20.25;16.27;;;;;;;38.13;27.60;101738.72;5201168;28;20067;-46
2022/09/04 08:26:30;;;;;;;19.10;15.23;;;;;;;37.49;28.08;101746.31;5146663;28;20436;-45
2022/09/04 08:29:26;;;;;;;20.85;15.27;;;;;;;36.85;28.46;101746.22;5185111;28;20063;-50
2022/09/04 08:32:17;;;;;;;19.10;14.32;;;;;;;36.35;29.07;101748.78;5195403;28;20730;-45
2022/09/04 08:35:09;;;;;;;17.63;14.52;;;;;;;36.62;28.91;101751.63;5199928;28;20066;-46
2022/09/04 08:37:59;;;;;;;18.00;14.93;;;;;;;36.93;28.55;101753.78;5199009;28;20097;-47
2022/09/04 08:41:26;;;;;;;17.98;14.32;;;;;;;37.00;28.24;101759.72;5212041;28;20109;-48
2022/09/04 08:44:57;;;;;;;22.35;13.77;;;;;;;37.00;28.29;101758.91;5181356;28;20442;-45
2022/09/04 08:48:22;;;;;;;26.73;15.93;;;;;;;37.02;28.23;101765.75;5181905;28;20049;-47
2022/09/04 08:51:44;;;;;;;21.10;15.70;;;;;;;36.81;28.16;101757.03;5128111;28;20130;-49
2022/09/04 08:55:01;;;;;;;20.80;14.68;;;;;;;36.55;28.75;101767.72;5196736;28;20048;-46
2022/09/04 08:58:12;;;;;;;20.60;15.02;;;;;;;36.55;28.40;101764.97;5196386;28;20041;-45
2022/09/04 09:01:19;;;;;;;20.73;16.00;;;;;;;36.51;28.22;101774.13;5202041;28;20098;-46
2022/09/04 09:04:22;;;;;;;20.27;13.65;;;;;;;36.54;28.28;101768.81;5157864;28;20045;-44
2022/09/04 09:07:36;;;;;;;24.40;14.23;;;;;;;36.20;28.41;101763.63;5182227;28;20412;-47
2022/09/04 09:10:37;;;;;;;17.40;14.13;;;;;;;36.25;28.42;101769.84;5170026;28;20756;-49
2022/09/04 09:14:04;;;;;;;17.38;15.55;;;;;;;36.29;28.58;101767.31;5201018;28;20658;-49
2022/09/04 09:16:44;;;;;;;17.15;13.35;;;;;;;36.09;28.63;101760.25;5194994;28;20400;-49
2022/09/04 09:19:32;;;;;;;14.13;10.40;;;;;;;35.66;29.22;101754.00;5205470;28;20118;-51
2022/09/04 09:22:14;;;;;;;13.32;10.73;;;;;;;35.08;30.09;101760.50;5199129;28;20046;-50
2022/09/04 09:25:19;;;;;;;18.98;11.93;;;;;;;34.42;31.02;101771.03;5209254;28;20374;-50
2022/09/04 09:28:36;;;;;;;17.25;12.70;;;;;;;33.32;31.99;101764.03;5207218;28;20121;-46
2022/09/04 09:32:08;;;;;;;18.20;12.15;;;;;;;32.63;32.98;101767.50;5204977;28;20036;-51
2022/09/04 09:35:22;;;;;;;21.02;13.07;;;;;;;32.28;33.63;101767.22;5209558;28;20437;-52
2022/09/04 09:38:26;;;;;;;23.60;13.98;;;;;;;32.17;33.79;101776.50;5205317;28;20573;-49
2022/09/04 09:41:52;;;;;;;20.33;11.73;;;;;;;32.05;34.04;101779.50;5201926;28;20045;-41
2022/09/04 09:45:48;;;;;;;15.82;10.60;;;;;;;32.05;34.03;101774.03;5168439;28;20111;-49
2022/09/04 09:48:56;;;;;;;20.35;12.00;;;;;;;32.10;34.28;101774.03;5025461;28;20535;-49
2022/09/04 09:52:18;;;;;;;17.17;10.80;;;;;;;32.23;34.11;101771.88;5118412;28;20490;-50
2022/09/04 09:55:40;;;;;;;18.90;11.05;;;;;;;32.41;33.67;101763.13;5203307;28;20036;-47
2022/09/04 09:59:05;;;;;;;15.02;10.65;;;;;;;32.73;33.55;101779.22;5182572;28;20545;-44
2022/09/04 10:02:21;;;;;;;14.50;11.85;;;;;;;32.73;33.54;101778.41;5209286;28;20036;-48
2022/09/04 10:05:28;;;;;;;13.77;10.65;;;;;;;32.39;34.50;101781.69;5194967;28;20369;-52
2022/09/04 10:08:37;;;;;;;20.88;12.63;;;;;;;32.02;34.96;101773.75;5196316;28;20106;-49
2022/09/04 10:12:11;;;;;;;16.77;11.98;;;;;;;32.05;34.87;101776.75;5197655;28;20551;-48
2022/09/04 10:15:20;;;;;;;85.80;19.65;;;;;;;31.92;35.02;101780.03;5204303;27;20584;-50
2022/09/04 10:18:38;;;;;;;27.10;14.80;;;;;;;31.99;35.20;101769.66;5194642;28;20469;-49
2022/09/04 10:22:00;;;;;;;18.80;13.00;;;;;;;32.19;34.95;101781.72;5171491;28;20186;-50
2022/09/04 10:25:17;;;;;;;21.42;13.88;;;;;;;32.15;35.05;101779.53;5159993;28;20382;-51
2022/09/04 10:28:29;;;;;;;31.90;12.35;;;;;;;32.20;34.75;101788.81;5205967;28;20131;-50
2022/09/04 10:31:50;;;;;;;28.15;14.30;;;;;;;32.14;35.06;101777.88;5201668;28;20435;-47
2022/09/04 10:35:03;;;;;;;17.02;11.50;;;;;;;32.27;34.86;101782.00;5162686;28;20126;-48
2022/09/04 10:38:14;;;;;;;15.75;11.73;;;;;;;32.45;34.68;101794.31;5202735;28;20045;-48
2022/09/04 10:41:25;;;;;;;14.48;11.70;;;;;;;32.28;34.99;101782.81;5198552;28;20076;-49
2022/09/04 10:44:49;;;;;;;16.58;12.05;;;;;;;32.11;35.01;101789.34;5201450;28;20044;-47
2022/09/04 10:47:57;;;;;;;18.42;10.25;;;;;;;32.05;35.25;101795.88;5199009;28;20082;-47
2022/09/04 10:51:04;;;;;;;13.45;10.02;;;;;;;32.01;35.57;101789.34;5178099;28;20037;-46
2022/09/04 10:54:07;;;;;;;11.88;9.60;;;;;;;31.81;35.72;101783.81;5197003;28;20416;-49
2022/09/04 10:56:47;;;;;;;18.08;10.55;;;;;;;31.56;35.91;101788.13;5206415;28;20036;-48
2022/09/04 10:59:49;;;;;;;14.57;11.07;;;;;;;31.42;36.15;101789.69;5202539;28;20562;-49
2022/09/04 11:03:13;;;;;;;20.08;13.45;;;;;;;31.41;36.14;101801.72;5200674;28;20064;-47
2022/09/04 11:06:25;;;;;;;16.08;10.82;;;;;;;31.03;36.54;101779.09;5198969;28;20049;-49
2022/09/04 11:09:32;;;;;;;16.85;11.05;;;;;;;30.81;36.68;101783.88;5198391;28;20493;-51
2022/09/04 11:12:59;;;;;;;16.58;12.30;;;;;;;30.46;37.17;101779.78;5195518;28;20473;-49
2022/09/04 11:15:54;;;;;;;15.90;12.35;;;;;;;30.13;37.80;101803.44;5116416;28;20512;-47
2022/09/04 11:19:00;;;;;;;10.35;6.78;;;;;;;30.16;37.91;101802.91;5184537;28;20408;-47
2022/09/04 11:22:37;;;;;;;7.85;5.18;;;;;;;30.12;38.17;101793.63;5196107;28;20534;-48
2022/09/04 11:26:04;;;;;;;8.60;6.05;;;;;;;30.15;38.07;101793.09;5198226;28;20037;-52
2022/09/04 11:29:00;;;;;;;11.82;7.72;;;;;;;30.19;38.43;101796.13;5197743;28;20087;-49
2022/09/04 11:32:19;;;;;;;15.13;8.77;;;;;;;30.25;38.10;101779.59;5196152;28;20575;-47
2022/09/04 11:35:31;;;;;;;13.80;9.68;;;;;;;30.48;38.00;101796.69;5096183;28;20732;-48
2022/09/04 11:38:16;;;;;;;19.23;6.90;;;;;;;30.51;38.10;101788.81;5094367;28;20050;-50
2022/09/04 11:41:36;;;;;;;7.18;4.25;;;;;;;30.54;38.02;101780.13;5184428;28;22114;-53
2022/09/04 11:44:49;;;;;;;8.30;4.30;;;;;;;30.58;37.98;101794.06;5196325;28;20220;-53
2022/09/04 11:48:04;;;;;;;10.50;5.15;;;;;;;30.48;38.17;101783.06;5198270;28;20582;-50
2022/09/04 11:50:57;;;;;;;9.73;6.40;;;;;;;30.48;38.40;101793.97;5195979;28;20040;-49
2022/09/04 11:54:12;;;;;;;12.75;7.97;;;;;;;30.42;38.16;101789.56;5196913;28;20481;-50
2022/09/04 11:57:12;;;;;;;15.98;6.88;;;;;;;30.26;38.07;101791.34;5203168;28;20597;-52
2022/09/04 12:00:18;;;;;;;10.27;8.13;;;;;;;30.22;37.97;101788.28;5200431;28;20503;-50
2022/09/04 12:03:35;;;;;;;12.00;9.82;;;;;;;30.09;38.36;101802.31;5188017;28;20413;-49
2022/09/04 12:06:23;;;;;;;15.38;10.75;;;;;;;30.05;38.68;101795.75;5198978;28;20049;-50
2022/09/04 12:09:50;;;;;;;14.48;10.70;;;;;;;29.97;38.75;101793.47;5198320;28;20421;-44
2022/09/04 12:13:00;;;;;;;19.38;11.52;;;;;;;29.92;39.13;101801.56;5196055;28;20045;-52
2022/09/04 12:16:17;;;;;;;21.17;10.63;;;;;;;30.00;39.16;101792.94;5194986;28;20049;-49
2022/09/04 12:19:41;;;;;;;18.65;11.55;;;;;;;30.15;38.66;101800.47;5171759;28;20137;-50
2022/09/04 12:23:09;;;;;;;24.60;11.20;;;;;;;30.13;38.54;101797.97;5211470;28;20050;-46
2022/09/04 12:26:15;;;;;;;12.82;6.78;;;;;;;29.91;39.16;101789.84;5199943;28;20098;-50
2022/09/04 12:29:31;;;;;;;12.05;8.57;;;;;;;29.98;38.93;101803.28;5172826;28;20045;-47
2022/09/04 12:32:36;;;;;;;12.10;8.95;;;;;;;29.90;39.24;101796.41;5196058;28;20075;-48
2022/09/04 12:35:57;;;;;;;10.93;7.68;;;;;;;29.75;39.89;101793.50;5198469;27;20045;-46
2022/09/04 12:39:25;;;;;;;16.98;7.22;;;;;;;29.84;39.44;101795.50;5191632;28;20059;-46
2022/09/04 12:42:06;;;;;;;11.50;8.48;;;;;;;30.00;39.12;101803.84;5179526;28;20067;-50
2022/09/04 12:44:53;;;;;;;8.75;5.15;;;;;;;29.99;39.24;101804.94;5195421;28;20480;-46
2022/09/04 12:47:41;;;;;;;7.57;5.13;;;;;;;30.05;39.48;101806.63;5193978;28;20440;-50
2022/09/04 12:50:26;;;;;;;10.40;5.75;;;;;;;30.12;39.63;101812.69;5194343;28;20546;-54
2022/09/04 12:53:24;;;;;;;8.55;5.88;;;;;;;30.18;39.42;101808.94;5194197;28;20480;-44
2022/09/04 12:56:05;;;;;;;8.35;6.10;;;;;;;30.32;39.44;101807.47;5184652;28;20048;-45
2022/09/04 12:59:05;;;;;;;9.70;4.85;;;;;;;30.36;39.24;101796.88;5190251;28;20090;-52
2022/09/04 13:01:49;;;;;;;9.23;4.70;;;;;;;30.25;39.70;101812.28;5194098;28;20048;-48
2022/09/04 13:04:28;;;;;;;4.03;3.20;;;;;;;30.30;39.89;101814.25;5187302;28;20044;-51
2022/09/04 13:07:23;;;;;;;10.05;4.35;;;;;;;30.27;40.00;101812.03;5188786;28;20040;-50
2022/09/04 13:10:03;;;;;;;6.85;4.25;;;;;;;30.30;39.84;101811.53;5197212;28;20068;-50
2022/09/04 13:12:47;;;;;;;6.70;3.25;;;;;;;30.35;39.79;101799.84;5193261;28;20358;-48
2022/09/04 13:15:32;;;;;;;5.53;4.20;;;;;;;30.43;39.57;101802.91;5198982;28;20401;-48
2022/09/04 13:18:25;;;;;;;5.63;3.03;;;;;;;30.39;39.45;101803.72;5192912;28;20143;-49
2022/09/04 13:21:12;;;;;;;5.65;3.33;;;;;;;30.29;39.91;101810.72;5184455;28;20413;-50
2022/09/04 13:24:07;;;;;;;7.00;3.30;;;;;;;30.19;39.92;101810.56;5195147;28;20411;-47
2022/09/04 13:27:03;;;;;;;5.82;3.08;;;;;;;30.17;39.79;101810.03;5193042;28;20068;-49
2022/09/04 13:29:49;;;;;;;3.38;2.65;;;;;;;30.10;39.81;101820.28;5188791;28;20554;-47
2022/09/04 13:32:49;;;;;;;4.38;2.25;;;;;;;30.10;39.99;101817.56;5200602;28;20067;-51